Maplewood, West Virginia
Current Conditions -  °F | °C
As of 12:51 AM on Wednesday 22 Oct 2014 (Local Time) from KBKW Reporting Station
Overcast Overcast  
Wind Chill: 37°   Ceiling: 900
Heat Index: 42°   Visibility: 10mi
Dew Point: 39°   Wind: 9mph
Humidity: 89%   Direction: 320°NW
Pressure: 30.04"   Gusts: NA
Location:  37.8817°N, 80.9739°W
Report Text: KBKW 220451Z AUTO 32008KT 10SM BKN009 OVC017 06/04 A3004 RMK AO2 RAE03 CIG 006V014 SLP177 P0000 T00560039 401170056 TSNO
Loading
Personal Weather Stations






























Interactive Weather Map
Tropical Storm Tracking
New forecast layout! Learn more

10-Day Weather Forecast

Advertisements
Track Severe Weather on mobile